Terminal Aerodrome Forecast
Issued by NWS Sioux Falls, SD

Home | Current Version | Previous Version | Graphics & Text | Print | Product List | Glossary Off
Versions: 1 2 3 4 5 6 7 8 9 10 11 12 13 14 15 16 17 18 19 20

000
FTUS43 KFSD 151934 AAB
TAFFSD
TAF AMD
KFSD 151934Z 1520/1618 01011KT 6SM -SN BR OVC012
      TEMPO 1520/1521 2SM -SN BR VV007
     FM152100 34020G30KT 3SM -SN BR OVC011
      TEMPO 1522/1524 1SM -SN BR OVC008
     FM160100 34022G30KT 4SM -SN OVC015
     FM160400 34017G24KT P6SM OVC015
     FM161300 34012G18KT P6SM OVC015=

USA.gov is the U.S. government's official web portal to all federal, state and local government web resources and services.